createdAt,value
2022-12-23T00:04:59.101Z,102177.56
2022-12-23T00:10:02.548Z,102161.38
2022-12-23T00:15:07.083Z,102181.75
2022-12-23T00:20:12.352Z,102165.84
2022-12-23T00:25:15.463Z,102159.59
2022-12-23T00:30:18.637Z,102173.66
2022-12-23T00:35:21.659Z,102153.28
2022-12-23T00:40:43.015Z,102175.19
2022-12-23T00:45:46.444Z,102167.38
2022-12-23T00:50:53.158Z,102166.34
2022-12-23T00:55:56.273Z,102167.25
2022-12-23T01:01:17.840Z,102143.44
2022-12-23T01:06:20.934Z,102140.88
2022-12-23T01:11:24.576Z,102139.00
2022-12-23T01:16:27.678Z,102139.31
2022-12-23T01:21:30.911Z,102156.50
2022-12-23T01:26:33.984Z,102132.31
2022-12-23T01:31:37.412Z,102153.22
2022-12-23T01:36:40.433Z,102157.78
2022-12-23T01:42:02.123Z,102147.66
2022-12-23T01:47:13.389Z,102130.16
2022-12-23T01:52:17.260Z,102160.81
2022-12-23T01:57:20.672Z,102156.00
2022-12-23T02:02:42.655Z,102156.91
2022-12-23T02:08:04.959Z,102149.38
2022-12-23T02:13:29.996Z,102152.44
2022-12-23T02:19:13.050Z,102136.28
2022-12-23T02:24:52.992Z,102157.47
2022-12-23T02:30:26.319Z,102154.31
2022-12-23T02:35:32.378Z,102161.44
2022-12-23T02:40:43.916Z,102135.84
2022-12-23T02:46:00.987Z,102148.06
2022-12-23T02:51:06.186Z,102140.09
2022-12-23T02:56:12.590Z,102136.94
2022-12-23T03:01:17.161Z,102155.91
2022-12-23T03:06:25.689Z,102157.81
2022-12-23T03:11:46.071Z,102158.63
2022-12-23T03:17:09.307Z,102167.31
2022-12-23T03:22:15.112Z,102166.69
2022-12-23T03:27:36.998Z,102159.88
2022-12-23T03:32:49.750Z,102165.38
2022-12-23T03:37:55.575Z,102172.34
2022-12-23T03:43:03.616Z,102159.94
2022-12-23T03:48:14.044Z,102186.44
2022-12-23T03:53:32.664Z,102158.75
2022-12-23T03:58:48.311Z,102181.31
2022-12-23T04:04:15.256Z,102187.56
2022-12-23T04:09:22.692Z,102170.78
2022-12-23T04:14:25.831Z,102179.84
2022-12-23T04:19:29.006Z,102197.38
2022-12-23T04:24:32.086Z,102174.28
2022-12-23T04:29:35.278Z,102170.81
2022-12-23T04:34:38.458Z,102206.59
2022-12-23T04:39:41.497Z,102203.06
2022-12-23T04:44:44.703Z,102206.31
2022-12-23T04:49:47.747Z,102212.09
2022-12-23T04:54:50.915Z,102203.72
2022-12-23T04:59:54.002Z,102221.34
2022-12-23T05:04:57.070Z,102227.53
2022-12-23T05:10:02.458Z,102217.59
2022-12-23T05:15:06.934Z,102237.13
2022-12-23T05:20:10.587Z,102226.56
2022-12-23T05:25:13.899Z,102221.66
2022-12-23T05:30:17.080Z,102204.72
2022-12-23T05:35:20.255Z,102229.25
2022-12-23T05:40:27.836Z,102215.63
2022-12-23T05:45:38.300Z,102242.09
2022-12-23T05:50:41.999Z,102236.34
2022-12-23T05:55:45.139Z,102226.41
2022-12-23T06:00:48.295Z,102244.88
2022-12-23T06:05:52.223Z,102225.19
2022-12-23T06:10:55.633Z,102239.63
2022-12-23T06:15:58.730Z,102217.94
2022-12-23T06:21:01.877Z,102224.91
2022-12-23T06:26:05.161Z,102213.28
2022-12-23T06:31:08.302Z,102234.63
2022-12-23T06:36:11.470Z,102250.41
2022-12-23T06:41:14.663Z,102239.22
2022-12-23T06:46:17.779Z,102249.78
2022-12-23T06:51:21.931Z,102243.44
2022-12-23T06:56:25.218Z,102217.53
2022-12-23T07:01:28.481Z,102232.31
2022-12-23T07:06:32.426Z,102231.34
2022-12-23T07:11:35.591Z,102224.28
2022-12-23T07:16:38.795Z,102243.69
2022-12-23T07:21:41.945Z,102232.84
2022-12-23T07:26:45.355Z,102248.28
2022-12-23T07:31:48.549Z,102234.28
2022-12-23T07:37:02.113Z,102216.16
2022-12-23T07:47:28.591Z,102202.41
2022-12-23T07:52:31.688Z,102208.59
2022-12-23T07:57:38.481Z,102191.13
2022-12-23T08:02:42.802Z,102189.97
2022-12-23T08:07:46.120Z,102185.59
2022-12-23T08:12:49.180Z,102171.81
2022-12-23T08:17:52.352Z,102201.34
2022-12-23T08:22:55.704Z,102194.47
2022-12-23T08:27:58.838Z,102192.66
2022-12-23T08:33:01.882Z,102197.53
2022-12-23T08:38:04.988Z,102202.09
2022-12-23T08:43:08.310Z,102160.31
2022-12-23T08:48:11.415Z,102182.50
2022-12-23T08:53:15.644Z,102189.88
2022-12-23T08:58:18.769Z,102182.88
2022-12-23T09:08:44.747Z,102169.69
2022-12-23T09:13:48.607Z,102175.75
2022-12-23T09:18:51.841Z,102176.72
2022-12-23T09:23:54.927Z,102190.22
2022-12-23T09:28:58.218Z,102177.06
2022-12-23T09:34:01.437Z,102165.44
2022-12-23T09:39:04.598Z,102163.84
2022-12-23T09:44:09.736Z,102173.09
2022-12-23T09:49:16.755Z,102163.28
2022-12-23T09:54:33.729Z,102145.94
2022-12-23T10:00:08.395Z,102140.88
2022-12-23T10:05:45.213Z,102159.41
2022-12-23T10:11:17.091Z,102157.84
2022-12-23T10:16:28.134Z,102151.75
2022-12-23T10:21:47.321Z,102136.69
2022-12-23T10:27:32.130Z,102145.94
2022-12-23T10:32:41.072Z,102146.34
2022-12-23T10:37:52.114Z,102135.09
2022-12-23T10:43:23.256Z,102136.50
2022-12-23T10:48:47.453Z,102134.03
2022-12-23T10:53:59.749Z,102147.13
2022-12-23T10:59:07.618Z,102137.53
2022-12-23T11:04:30.855Z,102117.28
2022-12-23T11:15:38.367Z,102137.88
2022-12-23T11:20:44.540Z,102136.16
2022-12-23T11:25:48.002Z,102120.53
2022-12-23T11:30:55.981Z,102133.88
2022-12-23T11:36:14.874Z,102131.66
2022-12-23T11:41:25.544Z,102105.59
2022-12-23T11:46:32.923Z,102121.06
2022-12-23T11:51:36.024Z,102146.72
2022-12-23T11:56:41.096Z,102137.34
2022-12-23T12:01:49.268Z,102157.38
2022-12-23T12:06:56.578Z,102151.13
2022-12-23T12:12:16.757Z,102136.72
2022-12-23T12:17:49.071Z,102140.03
2022-12-23T12:23:02.376Z,102153.25
2022-12-23T12:28:13.309Z,102141.84
2022-12-23T12:33:23.939Z,102150.66
2022-12-23T12:38:30.572Z,102134.25
2022-12-23T12:43:38.794Z,102146.03
2022-12-23T12:48:58.229Z,102145.25
2022-12-23T12:54:16.572Z,102146.97
2022-12-23T12:59:29.288Z,102138.19
2022-12-23T13:04:42.799Z,102138.16
2022-12-23T13:10:05.340Z,102143.25
2022-12-23T13:15:22.498Z,102152.22
2022-12-23T13:20:31.255Z,102149.53
2022-12-23T13:25:44.938Z,102124.09
2022-12-23T13:31:03.968Z,102124.84
2022-12-23T13:36:41.783Z,102144.25
2022-12-23T13:41:50.048Z,102150.41
2022-12-23T13:47:22.330Z,102144.31
2022-12-23T13:52:47.986Z,102125.94
2022-12-23T13:58:09.764Z,102146.97
2022-12-23T14:03:23.791Z,102159.28
2022-12-23T14:08:43.413Z,102146.03
2022-12-23T14:13:52.219Z,102151.50
2022-12-23T14:19:30.029Z,102144.03
2022-12-23T14:24:45.271Z,102149.13
2022-12-23T14:30:13.598Z,102126.44
2022-12-23T14:35:21.781Z,102157.91
2022-12-23T14:40:39.856Z,102155.41
2022-12-23T14:45:43.904Z,102150.78
2022-12-23T14:50:58.235Z,102140.47
2022-12-23T14:56:21.670Z,102153.63
2022-12-23T15:01:38.621Z,102149.50
2022-12-23T15:06:55.277Z,102164.28
2022-12-23T15:12:01.629Z,102166.88
2022-12-23T15:17:33.097Z,102168.63
2022-12-23T15:22:37.433Z,102159.88
2022-12-23T15:28:00.795Z,102167.03
2022-12-23T15:33:34.989Z,102172.38
2022-12-23T15:38:35.506Z,102143.31
2022-12-23T15:43:42.132Z,102165.25
2022-12-23T15:48:45.781Z,102163.53
2022-12-23T15:53:49.250Z,102158.44
2022-12-23T15:58:53.883Z,102156.44
2022-12-23T16:03:59.514Z,102150.44
2022-12-23T16:09:17.752Z,102149.53
2022-12-23T16:14:31.464Z,102131.97
2022-12-23T16:25:33.697Z,102127.22
2022-12-23T16:30:39.680Z,102121.84
2022-12-23T16:35:43.948Z,102142.19
2022-12-23T16:40:52.052Z,102120.56
2022-12-23T16:45:57.408Z,102137.31
2022-12-23T16:51:02.162Z,102128.53
2022-12-23T16:56:15.436Z,102107.63
2022-12-23T17:01:23.900Z,102111.88
2022-12-23T17:06:27.532Z,102100.69
2022-12-23T17:11:50.298Z,102092.84
2022-12-23T17:16:53.872Z,102112.69
2022-12-23T17:22:02.495Z,102118.97
2022-12-23T17:27:13.267Z,102122.44
2022-12-23T17:32:18.287Z,102092.69
2022-12-23T17:37:23.127Z,102105.72
2022-12-23T17:47:42.970Z,102112.81
2022-12-23T17:52:46.323Z,102098.69
2022-12-23T17:57:49.717Z,102116.31
2022-12-23T18:02:52.931Z,102076.34
2022-12-23T18:08:00.986Z,102095.03
2022-12-23T18:13:08.443Z,102091.50
2022-12-23T18:18:26.431Z,102089.16
2022-12-23T18:23:34.052Z,102075.16
2022-12-23T18:28:41.183Z,102072.66
2022-12-23T18:33:45.377Z,102093.63
2022-12-23T18:38:48.739Z,102088.34
2022-12-23T18:43:52.271Z,102090.06
2022-12-23T18:48:55.340Z,102064.56
2022-12-23T18:53:58.472Z,102097.78
2022-12-23T18:59:01.633Z,102077.69
2022-12-23T19:04:04.810Z,102087.19
2022-12-23T19:09:08.650Z,102094.25
2022-12-23T19:14:12.310Z,102093.63
2022-12-23T19:19:15.373Z,102073.25
2022-12-23T19:24:18.641Z,102070.66
2022-12-23T19:29:21.782Z,102075.00
2022-12-23T19:34:24.902Z,102094.34
2022-12-23T19:39:28.041Z,102082.94
2022-12-23T19:44:31.195Z,102092.53
2022-12-23T19:49:34.744Z,102098.63
2022-12-23T19:54:37.778Z,102097.84
2022-12-23T19:59:40.917Z,102119.66
2022-12-23T20:10:07.014Z,102107.28
2022-12-23T20:15:10.277Z,102102.84
2022-12-23T20:20:13.493Z,102105.38
2022-12-23T20:25:16.595Z,102098.47
2022-12-23T20:30:19.804Z,102091.22
2022-12-23T20:35:22.841Z,102105.66
2022-12-23T20:40:26.047Z,102103.81
2022-12-23T20:45:29.127Z,102110.78
2022-12-23T20:50:32.171Z,102104.66
2022-12-23T20:55:35.264Z,102094.03
2022-12-23T21:00:38.288Z,102107.09
2022-12-23T21:05:41.409Z,102108.66
2022-12-23T21:10:44.505Z,102110.38
2022-12-23T21:15:47.544Z,102091.88
2022-12-23T21:26:16.396Z,102093.59
2022-12-23T21:31:22.163Z,102112.91
2022-12-23T21:36:38.377Z,102107.69
2022-12-23T21:41:42.079Z,102093.47
2022-12-23T21:46:45.282Z,102087.34
2022-12-23T21:51:48.387Z,102089.91
2022-12-23T21:56:51.411Z,102100.41
2022-12-23T22:01:54.565Z,102082.66
2022-12-23T22:06:57.755Z,102103.44
2022-12-23T22:12:00.839Z,102083.50
2022-12-23T22:17:03.904Z,102116.44
2022-12-23T22:22:06.957Z,102112.91
2022-12-23T22:27:09.943Z,102092.56
2022-12-23T22:32:12.964Z,102081.41
2022-12-23T22:37:16.072Z,102092.50
2022-12-23T22:42:19.196Z,102108.16
2022-12-23T22:47:22.190Z,102084.75
2022-12-23T22:52:25.284Z,102089.34
2022-12-23T22:57:28.296Z,102096.13
2022-12-23T23:02:31.438Z,102058.31
2022-12-23T23:07:34.499Z,102076.50
2022-12-23T23:12:37.534Z,102077.56
2022-12-23T23:17:40.563Z,102096.78
2022-12-23T23:22:52.489Z,102072.28
2022-12-23T23:27:55.542Z,102081.25
2022-12-23T23:32:58.782Z,102091.19
2022-12-23T23:43:35.244Z,102051.41
2022-12-23T23:48:38.301Z,102070.09
2022-12-23T23:53:41.418Z,102054.03
2022-12-23T23:58:44.511Z,102030.56
